createdAt,value
2018-02-03T00:00:54.241Z,91.17
2018-02-03T00:03:19.995Z,91.24
2018-02-03T00:05:45.767Z,91.02
2018-02-03T00:08:11.538Z,91.05
2018-02-03T00:10:37.286Z,91.48
2018-02-03T00:13:03.059Z,91.72
2018-02-03T00:15:28.814Z,91.56
2018-02-03T00:17:54.582Z,91.82
2018-02-03T00:20:20.334Z,91.75
2018-02-03T00:22:46.105Z,92.09
2018-02-03T00:25:11.872Z,91.96
2018-02-03T00:27:37.626Z,92.15
2018-02-03T00:30:03.403Z,92.29
2018-02-03T00:32:29.165Z,92.58
2018-02-03T00:34:54.921Z,92.50
2018-02-03T00:37:20.684Z,92.36
2018-02-03T00:39:46.466Z,92.42
2018-02-03T00:42:12.202Z,92.09
2018-02-03T00:44:37.973Z,91.84
2018-02-03T00:47:03.722Z,92.20
2018-02-03T00:49:29.478Z,92.81
2018-02-03T00:51:55.233Z,93.24
2018-02-03T00:54:20.990Z,93.55
2018-02-03T00:56:46.743Z,93.53
2018-02-03T00:59:12.495Z,93.82
2018-02-03T01:01:38.251Z,93.88
2018-02-03T01:04:04.022Z,94.10
2018-02-03T01:06:29.775Z,93.92
2018-02-03T01:08:55.536Z,93.96
2018-02-03T01:11:21.287Z,93.82
2018-02-03T01:13:47.059Z,92.43
2018-02-03T01:16:12.803Z,92.11
2018-02-03T01:18:38.564Z,91.50
2018-02-03T01:21:04.314Z,91.51
2018-02-03T01:23:30.066Z,91.21
2018-02-03T01:25:55.825Z,90.91
2018-02-03T01:28:21.578Z,91.00
2018-02-03T01:30:47.341Z,91.10
2018-02-03T01:33:13.082Z,91.55
2018-02-03T01:35:38.850Z,92.31
2018-02-03T01:38:04.598Z,92.84
2018-02-03T01:40:30.358Z,93.05
2018-02-03T01:42:56.122Z,93.52
2018-02-03T01:45:21.875Z,93.84
2018-02-03T01:47:51.608Z,93.54
2018-02-03T01:50:17.383Z,93.74
2018-02-03T01:52:43.140Z,93.21
2018-02-03T01:55:08.912Z,92.95
2018-02-03T01:57:34.670Z,92.44
2018-02-03T02:00:00.450Z,92.11
2018-02-03T02:02:26.194Z,92.11
2018-02-03T02:04:51.963Z,91.98
2018-02-03T02:07:17.711Z,92.49
2018-02-03T02:09:43.466Z,91.56
2018-02-03T02:12:09.236Z,91.26
2018-02-03T02:14:34.982Z,91.19
2018-02-03T02:17:00.751Z,91.00
2018-02-03T02:19:26.489Z,91.14
2018-02-03T02:21:52.259Z,90.66
2018-02-03T02:24:18.015Z,91.06
2018-02-03T02:26:43.778Z,90.97
2018-02-03T02:29:09.514Z,90.47
2018-02-03T02:31:35.266Z,90.17
2018-02-03T02:34:01.042Z,89.92
2018-02-03T02:36:26.803Z,89.79
2018-02-03T02:38:52.559Z,89.63
2018-02-03T02:41:18.331Z,89.34
2018-02-03T02:43:44.084Z,89.96
2018-02-03T02:46:09.836Z,89.50
2018-02-03T02:48:35.608Z,89.18
2018-02-03T02:51:01.367Z,88.52
2018-02-03T02:53:27.143Z,88.70
2018-02-03T02:55:52.894Z,88.29
2018-02-03T02:58:18.666Z,88.14
2018-02-03T03:00:44.447Z,88.44
2018-02-03T03:03:10.215Z,88.14
2018-02-03T03:05:35.987Z,88.29
2018-02-03T03:08:01.763Z,88.44
2018-02-03T03:10:27.518Z,88.55
2018-02-03T03:12:53.285Z,87.48
2018-02-03T03:15:19.046Z,87.81
2018-02-03T03:17:44.808Z,87.77
2018-02-03T03:20:10.570Z,87.48
2018-02-03T03:22:36.329Z,87.60
2018-02-03T03:25:02.103Z,88.26
2018-02-03T03:27:27.846Z,87.13
2018-02-03T03:29:53.626Z,88.11
2018-02-03T03:32:19.383Z,87.00
2018-02-03T03:34:45.158Z,87.20
2018-02-03T03:37:10.913Z,87.09
2018-02-03T03:39:36.686Z,86.76
2018-02-03T03:42:02.435Z,87.87
2018-02-03T03:44:28.194Z,87.38
2018-02-03T03:46:53.962Z,87.18
2018-02-03T03:49:19.726Z,86.93
2018-02-03T03:51:45.491Z,86.81
2018-02-03T03:54:11.244Z,87.49
2018-02-03T03:56:37.003Z,86.73
2018-02-03T03:59:02.770Z,87.18
2018-02-03T04:01:28.514Z,87.18
2018-02-03T04:03:54.276Z,87.20
2018-02-03T04:06:20.026Z,87.36
2018-02-03T04:08:46.270Z,87.31
2018-02-03T04:11:12.468Z,86.93
2018-02-03T04:13:38.723Z,86.84
2018-02-03T04:16:04.514Z,86.56
2018-02-03T04:18:30.279Z,87.14
2018-02-03T04:20:56.030Z,86.86
2018-02-03T04:23:21.800Z,87.25
2018-02-03T04:25:47.570Z,86.78
2018-02-03T04:28:13.310Z,86.31
2018-02-03T04:30:39.082Z,87.20
2018-02-03T04:33:04.839Z,86.69
2018-02-03T04:35:30.610Z,86.35
2018-02-03T04:37:56.359Z,86.78
2018-02-03T04:40:22.114Z,86.83
2018-02-03T04:42:47.879Z,87.04
2018-02-03T04:45:13.641Z,86.99
2018-02-03T04:50:11.891Z,87.26
2018-02-03T04:52:37.647Z,87.35
2018-02-03T04:55:03.412Z,86.56
2018-02-03T04:57:29.178Z,86.76
2018-02-03T04:59:54.947Z,87.53
2018-02-03T05:02:20.718Z,86.50
2018-02-03T05:04:46.470Z,87.03
2018-02-03T05:07:12.238Z,86.92
2018-02-03T05:09:37.989Z,87.00
2018-02-03T05:12:03.772Z,87.31
2018-02-03T05:14:29.518Z,87.49
2018-02-03T05:16:55.290Z,88.28
2018-02-03T05:19:21.055Z,87.84
2018-02-03T05:21:46.810Z,88.34
2018-02-03T05:24:12.562Z,88.48
2018-02-03T05:26:38.322Z,87.81
2018-02-03T05:29:04.070Z,87.79
2018-02-03T05:31:29.831Z,87.89
2018-02-03T05:33:55.590Z,87.48
2018-02-03T05:36:21.345Z,87.87
2018-02-03T05:38:47.102Z,88.21
2018-02-03T05:41:12.886Z,87.80
2018-02-03T05:43:39.624Z,87.96
2018-02-03T05:46:05.374Z,88.30
2018-02-03T05:48:31.127Z,88.43
2018-02-03T05:50:56.870Z,88.06
2018-02-03T05:53:22.635Z,88.90
2018-02-03T05:55:48.391Z,88.42
2018-02-03T05:58:14.154Z,88.63
2018-02-03T06:00:39.890Z,88.42
2018-02-03T06:03:05.626Z,89.00
2018-02-03T06:05:31.382Z,89.12
2018-02-03T06:07:57.150Z,89.04
2018-02-03T06:10:22.894Z,88.96
2018-02-03T06:12:48.654Z,89.21
2018-02-03T06:15:14.402Z,89.54
2018-02-03T06:17:40.163Z,89.89
2018-02-03T06:20:05.915Z,89.93
2018-02-03T06:22:31.680Z,90.14
2018-02-03T06:24:57.434Z,90.45
2018-02-03T06:27:23.221Z,90.47
2018-02-03T06:29:48.970Z,90.25
2018-02-03T06:32:14.722Z,90.75
2018-02-03T06:34:40.504Z,90.77
2018-02-03T06:37:06.246Z,90.80
2018-02-03T06:39:31.998Z,91.41
2018-02-03T06:41:57.755Z,91.29
2018-02-03T06:44:23.526Z,91.37
2018-02-03T06:46:49.288Z,90.68
2018-02-03T06:49:15.071Z,90.97
2018-02-03T06:51:40.808Z,91.00
2018-02-03T06:54:06.570Z,91.44
2018-02-03T06:56:32.334Z,91.34
2018-02-03T06:58:58.095Z,91.67
2018-02-03T07:01:23.842Z,91.80
2018-02-03T07:03:49.595Z,92.27
2018-02-03T07:06:15.337Z,92.01
2018-02-03T07:08:41.116Z,92.27
2018-02-03T07:11:06.876Z,92.01
2018-02-03T07:13:32.643Z,92.03
2018-02-03T07:15:58.396Z,89.56
2018-02-03T07:18:24.169Z,87.78
2018-02-03T07:20:49.927Z,87.90
2018-02-03T07:23:15.674Z,88.07
2018-02-03T07:25:41.446Z,87.87
2018-02-03T07:28:07.194Z,87.50
2018-02-03T07:30:32.975Z,86.78
2018-02-03T07:32:58.727Z,86.45
2018-02-03T07:35:24.495Z,86.33
2018-02-03T07:37:50.243Z,85.26
2018-02-03T07:40:16.014Z,85.65
2018-02-03T07:42:41.769Z,85.14
2018-02-03T07:45:07.539Z,84.71
2018-02-03T07:47:33.286Z,85.20
2018-02-03T07:49:59.059Z,85.19
2018-02-03T07:52:24.810Z,85.07
2018-02-03T07:54:50.576Z,84.43
2018-02-03T07:57:17.030Z,85.33
2018-02-03T07:59:42.804Z,85.43
2018-02-03T08:02:08.559Z,84.77
2018-02-03T08:04:34.327Z,84.34
2018-02-03T08:07:00.095Z,84.47
2018-02-03T08:09:25.859Z,84.30
2018-02-03T08:11:51.619Z,83.84
2018-02-03T08:14:17.375Z,83.02
2018-02-03T08:16:43.145Z,82.35
2018-02-03T08:19:08.911Z,82.08
2018-02-03T08:21:41.758Z,82.10
2018-02-03T08:24:07.515Z,81.83
2018-02-03T08:26:33.287Z,81.55
2018-02-03T08:28:59.039Z,82.01
2018-02-03T08:31:24.815Z,82.13
2018-02-03T08:33:50.570Z,82.55
2018-02-03T08:36:16.339Z,82.92
2018-02-03T08:38:42.086Z,80.92
2018-02-03T08:41:07.847Z,81.14
2018-02-03T08:43:33.594Z,80.54
2018-02-03T08:45:59.364Z,81.02
2018-02-03T08:48:25.110Z,81.12
2018-02-03T08:50:50.891Z,81.33
2018-02-03T08:53:16.636Z,81.41
2018-02-03T08:55:42.382Z,82.05
2018-02-03T08:58:08.143Z,81.70
2018-02-03T09:00:33.894Z,81.79
2018-02-03T09:02:59.656Z,81.41
2018-02-03T09:05:25.407Z,81.45
2018-02-03T09:07:51.153Z,82.00
2018-02-03T09:10:16.898Z,81.19
2018-02-03T09:12:42.648Z,80.98
2018-02-03T09:15:08.398Z,81.20
2018-02-03T09:17:34.171Z,80.98
2018-02-03T09:19:59.910Z,81.32
2018-02-03T09:22:25.671Z,81.52
2018-02-03T09:24:51.436Z,81.92
2018-02-03T09:27:17.200Z,81.99
2018-02-03T09:29:42.954Z,81.90
2018-02-03T09:32:08.714Z,81.11
2018-02-03T09:34:34.486Z,81.65
2018-02-03T09:37:00.234Z,80.86
2018-02-03T09:39:26.007Z,81.77
2018-02-03T09:41:51.760Z,81.43
2018-02-03T09:44:17.526Z,80.39
2018-02-03T09:46:43.288Z,81.00
2018-02-03T09:49:09.047Z,80.38
2018-02-03T09:51:34.830Z,80.36
2018-02-03T09:54:00.587Z,80.33
2018-02-03T09:56:26.360Z,79.83
2018-02-03T09:58:52.226Z,80.31
2018-02-03T10:01:17.982Z,80.18
2018-02-03T10:03:43.758Z,80.37
2018-02-03T10:06:09.515Z,80.31
2018-02-03T10:08:35.282Z,80.46
2018-02-03T10:11:01.049Z,80.29
2018-02-03T10:13:26.820Z,80.65
2018-02-03T10:15:52.586Z,81.17
2018-02-03T10:18:18.369Z,81.38
2018-02-03T10:20:44.118Z,81.30
2018-02-03T10:23:09.874Z,80.83
2018-02-03T10:25:35.647Z,80.91
2018-02-03T10:28:01.400Z,81.02
2018-02-03T10:30:27.168Z,80.92
2018-02-03T10:32:52.918Z,81.31
2018-02-03T10:35:18.715Z,80.42
2018-02-03T10:37:44.461Z,80.72
2018-02-03T10:40:10.239Z,80.93
2018-02-03T10:42:36.012Z,80.69
2018-02-03T10:45:01.783Z,80.36
2018-02-03T10:47:27.539Z,80.92
2018-02-03T10:49:53.303Z,81.09
2018-02-03T10:52:19.054Z,80.65
2018-02-03T10:54:44.831Z,80.19
2018-02-03T10:57:10.577Z,79.72
2018-02-03T10:59:36.372Z,79.58
2018-02-03T11:02:02.131Z,79.82
2018-02-03T11:04:27.879Z,80.01
2018-02-03T11:06:53.649Z,79.35
2018-02-03T11:09:19.398Z,79.76
2018-02-03T11:11:45.159Z,79.41
2018-02-03T11:14:10.911Z,80.33
2018-02-03T11:16:36.682Z,79.49
2018-02-03T11:19:02.442Z,79.88
2018-02-03T11:21:28.198Z,79.52
2018-02-03T11:23:53.970Z,79.95
2018-02-03T11:26:19.764Z,80.12
2018-02-03T11:28:45.499Z,79.31
2018-02-03T11:31:11.310Z,79.86
2018-02-03T11:33:37.055Z,79.38
2018-02-03T11:36:02.828Z,79.98
2018-02-03T11:38:28.632Z,79.69
2018-02-03T11:40:54.390Z,79.36
2018-02-03T11:43:20.159Z,78.85
2018-02-03T11:45:45.911Z,78.80
2018-02-03T11:48:11.679Z,78.71
2018-02-03T11:50:37.418Z,79.02
2018-02-03T11:53:03.207Z,78.81
2018-02-03T11:55:28.954Z,78.77
2018-02-03T11:57:54.715Z,78.96
2018-02-03T12:00:20.533Z,78.64
2018-02-03T12:02:46.613Z,78.41
2018-02-03T12:05:12.387Z,78.58
2018-02-03T12:07:38.171Z,78.92
2018-02-03T12:10:03.913Z,78.59
2018-02-03T12:12:29.674Z,78.46
2018-02-03T12:14:55.447Z,78.30
2018-02-03T12:17:21.212Z,78.47
2018-02-03T12:19:46.959Z,78.26
2018-02-03T12:22:12.720Z,78.72
2018-02-03T12:24:38.487Z,78.11
2018-02-03T12:27:04.262Z,79.18
2018-02-03T12:29:30.003Z,78.55
2018-02-03T12:31:55.758Z,77.84
2018-02-03T12:34:21.527Z,78.25
2018-02-03T12:36:48.070Z,78.62
2018-02-03T12:39:13.826Z,78.60
2018-02-03T12:41:39.585Z,78.77
2018-02-03T12:44:05.366Z,78.67
2018-02-03T12:46:31.139Z,79.13
2018-02-03T12:48:56.908Z,79.45
2018-02-03T12:51:22.647Z,77.64
2018-02-03T12:53:48.402Z,78.25
2018-02-03T12:56:14.159Z,78.56
2018-02-03T12:58:39.934Z,77.94
2018-02-03T13:01:05.694Z,78.53
2018-02-03T13:03:31.454Z,78.04
2018-02-03T13:05:57.214Z,78.10
2018-02-03T13:08:22.976Z,79.35
2018-02-03T13:10:49.242Z,78.44
2018-02-03T13:13:15.063Z,78.22
2018-02-03T13:15:41.587Z,79.02
2018-02-03T13:18:07.542Z,78.86
2018-02-03T13:20:34.940Z,78.54
2018-02-03T13:23:00.804Z,78.81
2018-02-03T13:25:26.546Z,78.38
2018-02-03T13:27:52.310Z,78.45
2018-02-03T13:30:18.060Z,78.44
2018-02-03T13:32:43.822Z,78.69
2018-02-03T13:35:09.718Z,78.13
2018-02-03T13:37:35.568Z,78.93
2018-02-03T13:40:01.338Z,78.27
2018-02-03T13:42:27.082Z,78.15
2018-02-03T13:44:52.822Z,78.03
2018-02-03T13:47:18.556Z,78.20
2018-02-03T13:49:44.309Z,78.41
2018-02-03T13:52:10.062Z,78.56
2018-02-03T13:54:35.802Z,78.18
2018-02-03T13:57:01.539Z,78.56
2018-02-03T13:59:27.282Z,79.14
2018-02-03T14:01:53.035Z,79.45
2018-02-03T14:04:18.793Z,79.77
2018-02-03T14:06:44.547Z,79.92
2018-02-03T14:09:10.307Z,79.99
2018-02-03T14:11:36.101Z,80.05
2018-02-03T14:14:01.834Z,80.28
2018-02-03T14:16:27.580Z,80.28
2018-02-03T14:18:53.346Z,80.69
2018-02-03T14:21:19.101Z,79.59
2018-02-03T14:26:44.525Z,79.87
2018-02-03T14:29:10.283Z,79.83
2018-02-03T14:31:36.041Z,80.34
2018-02-03T14:34:01.783Z,79.89
2018-02-03T14:36:27.548Z,79.67
2018-02-03T14:38:53.299Z,79.89
2018-02-03T14:41:19.035Z,80.66
2018-02-03T14:43:44.869Z,80.41
2018-02-03T14:46:10.631Z,80.74
2018-02-03T14:48:36.379Z,80.71
2018-02-03T14:51:02.135Z,81.23
2018-02-03T14:53:27.886Z,81.92
2018-02-03T14:55:53.635Z,82.10
2018-02-03T14:58:19.380Z,81.92
2018-02-03T15:00:45.119Z,81.93
2018-02-03T15:03:10.866Z,82.07
2018-02-03T15:05:36.620Z,82.84
2018-02-03T15:08:02.383Z,82.97
2018-02-03T15:10:28.191Z,82.36
2018-02-03T15:12:53.928Z,83.34
2018-02-03T15:15:19.666Z,83.44
2018-02-03T15:17:45.483Z,83.82
2018-02-03T15:20:11.247Z,83.86
2018-02-03T15:22:37.020Z,84.13
2018-02-03T15:25:02.766Z,84.34
2018-02-03T15:27:28.594Z,84.38
2018-02-03T15:29:54.334Z,84.46
2018-02-03T15:32:20.082Z,84.77
2018-02-03T15:34:45.853Z,84.78
2018-02-03T15:37:11.627Z,85.04
2018-02-03T15:39:37.390Z,85.19
2018-02-03T15:42:03.163Z,85.31
2018-02-03T15:44:28.936Z,85.06
2018-02-03T15:46:54.716Z,85.16
2018-02-03T15:49:20.470Z,85.36
2018-02-03T15:51:46.286Z,85.70
2018-02-03T15:54:12.046Z,86.04
2018-02-03T15:56:37.798Z,85.75
2018-02-03T15:59:03.555Z,85.59
2018-02-03T16:01:29.294Z,85.84
2018-02-03T16:03:55.066Z,86.17
2018-02-03T16:06:20.815Z,86.25
2018-02-03T16:08:46.584Z,86.29
2018-02-03T16:11:12.334Z,86.00
2018-02-03T16:13:38.239Z,86.01
2018-02-03T16:16:04.098Z,86.57
2018-02-03T16:18:29.858Z,86.43
2018-02-03T16:20:55.616Z,86.99
2018-02-03T16:23:21.377Z,86.78
2018-02-03T16:25:47.138Z,86.81
2018-02-03T16:28:12.914Z,87.00
2018-02-03T16:30:38.664Z,86.90
2018-02-03T16:33:04.426Z,87.09
2018-02-03T16:35:30.179Z,87.03
2018-02-03T16:37:55.951Z,87.52
2018-02-03T16:40:21.692Z,87.13
2018-02-03T16:42:47.451Z,87.54
2018-02-03T16:45:13.269Z,87.41
2018-02-03T16:47:39.015Z,87.40
2018-02-03T16:50:04.763Z,87.13
2018-02-03T16:52:30.519Z,87.67
2018-02-03T16:54:56.278Z,87.72
2018-02-03T16:57:22.026Z,87.43
2018-02-03T16:59:47.816Z,87.40
2018-02-03T17:02:13.571Z,87.48
2018-02-03T17:04:39.342Z,87.78
2018-02-03T17:07:05.094Z,87.62
2018-02-03T17:09:30.858Z,88.04
2018-02-03T17:11:56.610Z,87.90
2018-02-03T17:14:22.383Z,87.92
2018-02-03T17:16:48.374Z,87.57
2018-02-03T17:19:14.131Z,87.65
2018-02-03T17:21:39.875Z,87.56
2018-02-03T17:24:05.650Z,87.58
2018-02-03T17:26:31.387Z,87.88
2018-02-03T17:28:57.168Z,87.56
2018-02-03T17:31:22.907Z,87.80
2018-02-03T17:33:48.659Z,87.65
2018-02-03T17:36:20.632Z,87.75
2018-02-03T17:38:46.432Z,87.51
2018-02-03T17:41:12.251Z,87.58
2018-02-03T17:43:38.040Z,87.49
2018-02-03T17:46:10.027Z,87.54
2018-02-03T17:48:35.873Z,87.43
2018-02-03T17:51:01.837Z,87.22
2018-02-03T17:53:27.554Z,87.39
2018-02-03T17:55:59.519Z,87.27
2018-02-03T17:58:25.285Z,87.29
2018-02-03T18:00:51.059Z,86.90
2018-02-03T18:03:16.819Z,86.43
2018-02-03T18:05:42.631Z,86.71
2018-02-03T18:08:08.434Z,86.90
2018-02-03T18:10:34.234Z,87.05
2018-02-03T18:12:59.991Z,87.59
2018-02-03T18:15:25.985Z,87.02
2018-02-03T18:17:51.772Z,87.63
2018-02-03T18:20:17.539Z,87.27
2018-02-03T18:22:43.346Z,87.48
2018-02-03T18:25:09.111Z,87.36
2018-02-03T18:27:34.875Z,87.34
2018-02-03T18:30:00.647Z,87.24
2018-02-03T18:32:26.402Z,87.72
2018-02-03T18:34:52.169Z,87.61
2018-02-03T18:37:17.926Z,87.48
2018-02-03T18:39:43.727Z,87.35
2018-02-03T18:42:09.528Z,87.49
2018-02-03T18:44:35.408Z,87.40
2018-02-03T18:47:01.239Z,87.46
2018-02-03T18:49:26.984Z,87.68
2018-02-03T18:51:52.742Z,87.89
2018-02-03T18:54:18.545Z,87.82
2018-02-03T18:56:44.336Z,87.87
2018-02-03T18:59:10.071Z,87.96
2018-02-03T19:01:35.854Z,88.07
2018-02-03T19:04:01.603Z,87.98
2018-02-03T19:06:27.379Z,88.14
2018-02-03T19:08:53.121Z,87.93
2018-02-03T19:11:18.879Z,88.13
2018-02-03T19:13:44.636Z,87.95
2018-02-03T19:16:10.402Z,88.00
2018-02-03T19:18:36.163Z,87.87
2018-02-03T19:21:01.938Z,87.93
2018-02-03T19:23:27.695Z,87.92
2018-02-03T19:25:53.474Z,87.84
2018-02-03T19:28:19.227Z,87.94
2018-02-03T19:30:44.980Z,87.87
2018-02-03T19:33:10.743Z,88.16
2018-02-03T19:38:18.440Z,88.23
2018-02-03T19:40:44.180Z,88.29
2018-02-03T19:43:09.956Z,88.28
2018-02-03T19:45:35.712Z,88.36
2018-02-03T19:48:01.483Z,88.34
2018-02-03T19:50:27.246Z,88.43
2018-02-03T19:52:53.042Z,88.64
2018-02-03T19:55:18.805Z,88.68
2018-02-03T19:57:44.594Z,88.78
2018-02-03T20:00:10.348Z,88.50
2018-02-03T20:02:36.136Z,88.60
2018-02-03T20:05:01.884Z,88.60
2018-02-03T20:07:27.678Z,88.73
2018-02-03T20:09:53.458Z,88.47
2018-02-03T20:12:19.216Z,88.37
2018-02-03T20:14:45.047Z,88.70
2018-02-03T20:17:10.813Z,88.49
2018-02-03T20:19:36.577Z,88.44
2018-02-03T20:22:02.361Z,88.72
2018-02-03T20:24:28.435Z,88.15
2018-02-03T20:26:54.209Z,88.36
2018-02-03T20:29:19.976Z,88.31
2018-02-03T20:31:45.736Z,88.01
2018-02-03T20:34:11.507Z,88.29
2018-02-03T20:36:37.298Z,87.85
2018-02-03T20:39:03.109Z,87.69
2018-02-03T20:41:28.876Z,87.71
2018-02-03T20:43:54.646Z,87.64
2018-02-03T20:46:20.414Z,87.38
2018-02-03T20:48:46.196Z,87.66
2018-02-03T20:51:11.958Z,87.40
2018-02-03T20:53:37.742Z,87.71
2018-02-03T20:56:03.530Z,87.54
2018-02-03T20:58:29.287Z,87.71
2018-02-03T21:00:55.051Z,87.94
2018-02-03T21:03:20.835Z,87.93
2018-02-03T21:05:46.603Z,87.76
2018-02-03T21:08:12.387Z,87.86
2018-02-03T21:10:38.263Z,87.51
2018-02-03T21:13:04.082Z,87.62
2018-02-03T21:15:29.855Z,87.58
2018-02-03T21:17:55.628Z,87.62
2018-02-03T21:20:22.235Z,87.62
2018-02-03T21:22:47.995Z,87.51
2018-02-03T21:25:13.761Z,87.48
2018-02-03T21:27:39.528Z,87.17
2018-02-03T21:30:05.299Z,87.54
2018-02-03T21:32:31.072Z,87.30
2018-02-03T21:34:56.839Z,87.68
2018-02-03T21:37:22.603Z,87.57
2018-02-03T21:39:48.355Z,87.81
2018-02-03T21:42:14.133Z,87.61
2018-02-03T21:44:40.092Z,87.70
2018-02-03T21:47:05.891Z,87.97
2018-02-03T21:49:31.643Z,87.96
2018-02-03T21:51:57.437Z,88.00
2018-02-03T21:54:23.188Z,88.49
2018-02-03T21:56:48.954Z,88.86
2018-02-03T21:59:14.696Z,89.14
2018-02-03T22:01:40.531Z,89.47
2018-02-03T22:04:06.320Z,89.73
2018-02-03T22:06:32.063Z,90.23
2018-02-03T22:08:58.035Z,90.42
2018-02-03T22:11:23.811Z,90.96
2018-02-03T22:13:49.562Z,91.48
2018-02-03T22:16:15.380Z,91.58
2018-02-03T22:18:41.137Z,91.88
2018-02-03T22:21:06.905Z,91.91
2018-02-03T22:23:32.660Z,92.17
2018-02-03T22:25:59.020Z,91.80
2018-02-03T22:28:25.829Z,92.37
2018-02-03T22:30:51.601Z,92.55
2018-02-03T22:33:17.363Z,92.43
2018-02-03T22:35:43.693Z,92.32
2018-02-03T22:38:09.468Z,92.67
2018-02-03T22:40:35.234Z,92.69
2018-02-03T22:43:01.001Z,92.93
2018-02-03T22:45:26.760Z,93.49
2018-02-03T22:47:52.522Z,93.33
2018-02-03T22:50:18.291Z,93.56
2018-02-03T22:52:44.059Z,93.47
2018-02-03T22:55:09.822Z,93.52
2018-02-03T22:57:35.575Z,93.23
2018-02-03T23:00:01.334Z,93.31
2018-02-03T23:02:33.142Z,93.45
2018-02-03T23:04:58.897Z,93.49
2018-02-03T23:07:24.663Z,93.44
2018-02-03T23:09:50.836Z,93.32
2018-02-03T23:12:16.952Z,93.22
2018-02-03T23:14:43.417Z,93.16
2018-02-03T23:17:09.768Z,93.16
2018-02-03T23:19:35.559Z,93.08
2018-02-03T23:22:01.323Z,93.16
2018-02-03T23:24:27.078Z,93.20
2018-02-03T23:26:52.841Z,93.27
2018-02-03T23:29:18.610Z,93.70
2018-02-03T23:31:44.358Z,93.90
2018-02-03T23:34:10.127Z,93.76
2018-02-03T23:36:35.875Z,94.13
2018-02-03T23:39:01.652Z,94.41
2018-02-03T23:41:27.394Z,94.55
2018-02-03T23:43:53.160Z,94.49
2018-02-03T23:46:18.913Z,94.31
2018-02-03T23:48:44.676Z,93.98
2018-02-03T23:51:10.446Z,94.03
2018-02-03T23:53:36.204Z,94.08
2018-02-03T23:56:01.984Z,93.98
2018-02-03T23:58:27.763Z,94.13
